createdAt,value
2023-06-25T00:01:13.910Z,53.74
2023-06-25T00:02:45.598Z,53.75
2023-06-25T00:04:17.257Z,53.61
2023-06-25T00:05:49.548Z,53.67
2023-06-25T00:07:21.927Z,53.89
2023-06-25T00:08:53.543Z,53.89
2023-06-25T00:10:25.087Z,53.85
2023-06-25T00:11:56.673Z,54.20
2023-06-25T00:13:28.455Z,54.28
2023-06-25T00:15:00.085Z,53.97
2023-06-25T00:16:31.724Z,54.06
2023-06-25T00:18:03.782Z,54.10
2023-06-25T00:19:35.482Z,54.01
2023-06-25T00:21:07.115Z,54.04
2023-06-25T00:22:38.860Z,54.17
2023-06-25T00:24:10.455Z,54.23
2023-06-25T00:25:42.054Z,54.15
2023-06-25T00:27:13.616Z,54.10
2023-06-25T00:28:46.231Z,54.10
2023-06-25T00:30:17.884Z,54.17
2023-06-25T00:31:50.413Z,54.15
2023-06-25T00:33:22.729Z,54.26
2023-06-25T00:34:58.867Z,54.20
2023-06-25T00:36:37.712Z,54.42
2023-06-25T00:38:09.392Z,54.37
2023-06-25T00:39:40.996Z,54.33
2023-06-25T00:41:13.012Z,54.38
2023-06-25T00:42:45.338Z,54.28
2023-06-25T00:44:17.117Z,54.30
2023-06-25T00:45:48.971Z,54.31
2023-06-25T00:47:20.888Z,54.34
2023-06-25T00:48:53.543Z,54.39
2023-06-25T00:50:25.898Z,54.52
2023-06-25T00:51:57.595Z,54.51
2023-06-25T00:53:30.929Z,54.63
2023-06-25T00:55:02.870Z,54.68
2023-06-25T00:56:35.156Z,54.58
2023-06-25T00:58:07.561Z,54.72
2023-06-25T00:59:40.198Z,54.95
2023-06-25T01:01:18.639Z,54.98
2023-06-25T01:03:05.231Z,55.12
2023-06-25T01:04:38.684Z,55.07
2023-06-25T01:06:30.530Z,55.10
2023-06-25T01:08:05.039Z,55.03
2023-06-25T01:09:36.618Z,55.26
2023-06-25T01:11:11.951Z,55.24
2023-06-25T01:12:44.527Z,55.54
2023-06-25T01:14:16.242Z,55.45
2023-06-25T01:15:48.506Z,55.47
2023-06-25T01:17:20.358Z,55.52
2023-06-25T01:19:03.887Z,55.54
2023-06-25T01:20:39.584Z,55.50
2023-06-25T01:22:11.440Z,55.54
2023-06-25T01:23:42.940Z,55.44
2023-06-25T01:25:14.568Z,55.34
2023-06-25T01:26:56.369Z,55.33
2023-06-25T01:28:29.532Z,55.12
2023-06-25T01:30:02.387Z,55.14
2023-06-25T01:31:34.376Z,55.10
2023-06-25T01:33:06.058Z,55.02
2023-06-25T01:34:37.925Z,55.29
2023-06-25T01:36:09.577Z,55.02
2023-06-25T01:37:41.207Z,55.07
2023-06-25T01:39:13.056Z,55.07
2023-06-25T01:40:44.695Z,55.15
2023-06-25T01:42:16.629Z,55.19
2023-06-25T01:43:49.026Z,55.26
2023-06-25T01:45:21.123Z,55.15
2023-06-25T01:46:53.541Z,55.19
2023-06-25T01:48:25.415Z,55.22
2023-06-25T01:49:57.061Z,55.29
2023-06-25T01:51:29.394Z,55.32
2023-06-25T01:53:01.086Z,55.38
2023-06-25T01:54:32.711Z,55.27
2023-06-25T01:56:04.524Z,55.46
2023-06-25T01:57:36.382Z,55.47
2023-06-25T01:59:07.995Z,55.75
2023-06-25T02:00:39.998Z,55.92
2023-06-25T02:02:11.573Z,55.77
2023-06-25T02:03:43.335Z,55.84
2023-06-25T02:05:15.060Z,55.83
2023-06-25T02:06:47.023Z,55.94
2023-06-25T02:08:18.616Z,55.83
2023-06-25T02:09:50.327Z,55.85
2023-06-25T02:11:22.226Z,56.00
2023-06-25T02:12:54.247Z,55.93
2023-06-25T02:14:26.024Z,55.99
2023-06-25T02:15:58.035Z,56.04
2023-06-25T02:17:29.756Z,56.07
2023-06-25T02:19:01.553Z,56.05
2023-06-25T02:20:33.790Z,56.10
2023-06-25T02:22:05.608Z,56.19
2023-06-25T02:23:37.796Z,56.06
2023-06-25T02:25:09.499Z,56.26
2023-06-25T02:26:41.590Z,56.26
2023-06-25T02:28:13.287Z,56.37
2023-06-25T02:29:44.864Z,56.45
2023-06-25T02:31:16.913Z,56.41
2023-06-25T02:32:48.662Z,56.45
2023-06-25T02:34:20.719Z,56.47
2023-06-25T02:35:52.538Z,56.45
2023-06-25T02:37:24.276Z,56.57
2023-06-25T02:38:56.497Z,56.79
2023-06-25T02:40:30.836Z,56.86
2023-06-25T02:42:02.365Z,56.75
2023-06-25T02:43:34.122Z,56.88
2023-06-25T02:45:06.186Z,56.90
2023-06-25T02:46:38.147Z,56.86
2023-06-25T02:48:10.463Z,56.94
2023-06-25T02:49:42.251Z,56.97
2023-06-25T02:51:14.083Z,57.15
2023-06-25T02:52:45.765Z,57.13
2023-06-25T02:54:17.679Z,57.19
2023-06-25T02:55:49.858Z,57.48
2023-06-25T02:57:31.578Z,57.31
2023-06-25T02:59:03.100Z,57.19
2023-06-25T03:00:34.690Z,57.15
2023-06-25T03:02:06.406Z,57.07
2023-06-25T03:03:38.281Z,57.27
2023-06-25T03:05:09.971Z,57.14
2023-06-25T03:06:41.782Z,57.31
2023-06-25T03:08:13.418Z,57.39
2023-06-25T03:09:45.062Z,57.52
2023-06-25T03:11:16.851Z,57.59
2023-06-25T03:12:48.684Z,57.55
2023-06-25T03:14:34.128Z,57.71
2023-06-25T03:16:06.971Z,57.80
2023-06-25T03:17:38.688Z,57.87
2023-06-25T03:19:10.368Z,58.08
2023-06-25T03:20:41.933Z,58.27
2023-06-25T03:22:13.726Z,57.99
2023-06-25T03:23:45.345Z,57.89
2023-06-25T03:25:16.990Z,57.83
2023-06-25T03:26:48.571Z,57.74
2023-06-25T03:28:20.941Z,57.97
2023-06-25T03:29:53.201Z,58.01
2023-06-25T03:31:25.525Z,57.98
2023-06-25T03:32:57.339Z,58.07
2023-06-25T03:34:29.678Z,58.03
2023-06-25T03:36:01.395Z,57.93
2023-06-25T03:37:32.975Z,57.75
2023-06-25T03:39:04.614Z,57.71
2023-06-25T03:40:36.517Z,57.55
2023-06-25T03:42:08.265Z,57.51
2023-06-25T03:43:40.043Z,57.65
2023-06-25T03:45:11.658Z,57.49
2023-06-25T03:46:43.387Z,57.46
2023-06-25T03:48:15.163Z,57.46
2023-06-25T03:49:47.044Z,57.48
2023-06-25T03:51:18.728Z,57.31
2023-06-25T03:52:50.390Z,57.40
2023-06-25T03:54:22.041Z,57.36
2023-06-25T03:55:53.931Z,57.48
2023-06-25T03:57:25.794Z,57.48
2023-06-25T03:58:57.594Z,57.40
2023-06-25T04:00:29.207Z,57.33
2023-06-25T04:02:01.035Z,57.39
2023-06-25T04:03:32.762Z,57.30
2023-06-25T04:05:05.387Z,57.29
2023-06-25T04:06:36.974Z,57.47
2023-06-25T04:08:08.738Z,57.57
2023-06-25T04:09:40.340Z,57.77
2023-06-25T04:11:12.724Z,57.86
2023-06-25T04:12:44.270Z,57.80
2023-06-25T04:14:15.875Z,57.83
2023-06-25T04:15:47.567Z,57.80
2023-06-25T04:17:19.239Z,57.83
2023-06-25T04:18:50.915Z,57.77
2023-06-25T04:20:26.584Z,57.91
2023-06-25T04:21:58.274Z,58.09
2023-06-25T04:23:29.938Z,58.27
2023-06-25T04:25:01.677Z,58.34
2023-06-25T04:26:33.338Z,58.47
2023-06-25T04:28:05.309Z,58.75
2023-06-25T04:29:36.853Z,58.80
2023-06-25T04:31:08.895Z,58.88
2023-06-25T04:32:40.548Z,58.90
2023-06-25T04:34:12.286Z,58.91
2023-06-25T04:35:44.165Z,59.06
2023-06-25T04:37:15.905Z,59.14
2023-06-25T04:38:47.671Z,59.32
2023-06-25T04:40:20.056Z,59.36
2023-06-25T04:41:52.061Z,59.38
2023-06-25T04:43:23.739Z,59.41
2023-06-25T04:44:55.591Z,59.38
2023-06-25T04:46:28.752Z,59.31
2023-06-25T04:48:00.445Z,59.28
2023-06-25T04:49:32.157Z,59.35
2023-06-25T04:51:04.645Z,59.36
2023-06-25T04:52:39.363Z,59.49
2023-06-25T04:54:11.123Z,59.33
2023-06-25T04:55:42.814Z,59.26
2023-06-25T04:57:14.806Z,59.13
2023-06-25T04:58:46.462Z,59.13
2023-06-25T05:00:18.086Z,58.98
2023-06-25T05:01:49.849Z,58.71
2023-06-25T05:03:21.701Z,58.61
2023-06-25T05:04:53.404Z,58.66
2023-06-25T05:06:25.321Z,58.72
2023-06-25T05:07:57.238Z,58.76
2023-06-25T05:09:29.187Z,58.77
2023-06-25T05:11:00.812Z,58.87
2023-06-25T05:12:33.028Z,58.92
2023-06-25T05:14:05.487Z,58.95
2023-06-25T05:15:37.599Z,58.79
2023-06-25T05:17:09.499Z,58.80
2023-06-25T05:18:43.876Z,58.78
2023-06-25T05:20:16.189Z,58.86
2023-06-25T05:21:48.700Z,58.85
2023-06-25T05:23:20.744Z,59.02
2023-06-25T05:24:52.906Z,59.06
2023-06-25T05:26:24.929Z,59.04
2023-06-25T05:27:57.330Z,59.09
2023-06-25T05:29:28.923Z,59.20
2023-06-25T05:31:00.660Z,59.22
2023-06-25T05:32:32.459Z,59.17
2023-06-25T05:34:04.457Z,59.03
2023-06-25T05:35:36.411Z,58.96
2023-06-25T05:37:08.656Z,59.16
2023-06-25T05:38:40.369Z,58.87
2023-06-25T05:40:12.489Z,58.87
2023-06-25T05:41:44.349Z,58.93
2023-06-25T05:43:16.630Z,58.87
2023-06-25T05:44:48.216Z,58.77
2023-06-25T05:46:19.865Z,58.76
2023-06-25T05:47:51.555Z,58.67
2023-06-25T05:49:23.895Z,58.84
2023-06-25T05:50:55.941Z,58.63
2023-06-25T05:52:27.586Z,58.92
2023-06-25T05:53:59.196Z,59.12
2023-06-25T05:55:30.905Z,58.68
2023-06-25T05:57:02.462Z,58.91
2023-06-25T05:58:37.414Z,58.74
2023-06-25T06:00:10.435Z,58.66
2023-06-25T06:01:42.152Z,58.58
2023-06-25T06:03:13.914Z,58.67
2023-06-25T06:04:46.507Z,58.74
2023-06-25T06:06:18.917Z,58.64
2023-06-25T06:07:50.925Z,58.95
2023-06-25T06:09:22.969Z,58.73
2023-06-25T06:10:55.637Z,58.89
2023-06-25T06:12:27.779Z,58.71
2023-06-25T06:13:59.648Z,59.13
2023-06-25T06:15:31.959Z,58.78
2023-06-25T06:17:03.709Z,58.70
2023-06-25T06:18:35.593Z,58.37
2023-06-25T06:20:07.675Z,58.19
2023-06-25T06:21:39.437Z,58.25
2023-06-25T06:23:11.156Z,58.22
2023-06-25T06:24:42.977Z,57.98
2023-06-25T06:26:14.786Z,57.83
2023-06-25T06:27:46.411Z,57.88
2023-06-25T06:29:20.532Z,57.52
2023-06-25T06:30:52.692Z,57.36
2023-06-25T06:32:24.951Z,57.50
2023-06-25T06:33:56.803Z,57.40
2023-06-25T06:35:28.854Z,57.78
2023-06-25T06:37:00.513Z,57.59
2023-06-25T06:38:33.504Z,57.77
2023-06-25T06:40:05.395Z,57.52
2023-06-25T06:41:37.000Z,57.68
2023-06-25T06:43:08.660Z,57.86
2023-06-25T06:44:40.697Z,57.52
2023-06-25T06:46:12.377Z,57.46
2023-06-25T06:47:44.662Z,57.79
2023-06-25T06:49:18.483Z,57.24
2023-06-25T06:50:50.360Z,57.23
2023-06-25T06:52:24.745Z,57.61
2023-06-25T06:53:56.402Z,57.23
2023-06-25T06:55:27.985Z,56.84
2023-06-25T06:57:00.085Z,56.93
2023-06-25T06:58:31.737Z,56.71
2023-06-25T07:00:05.226Z,56.82
2023-06-25T07:01:36.942Z,56.38
2023-06-25T07:03:08.735Z,56.16
2023-06-25T07:04:40.794Z,56.18
2023-06-25T07:06:12.745Z,55.90
2023-06-25T07:07:44.849Z,55.64
2023-06-25T07:09:24.427Z,55.47
2023-06-25T07:10:57.059Z,55.42
2023-06-25T07:12:28.842Z,55.51
2023-06-25T07:14:00.596Z,55.35
2023-06-25T07:15:32.778Z,55.27
2023-06-25T07:17:04.470Z,55.15
2023-06-25T07:18:36.152Z,54.92
2023-06-25T07:20:08.243Z,55.01
2023-06-25T07:21:40.399Z,54.88
2023-06-25T07:23:12.101Z,54.80
2023-06-25T07:24:44.101Z,54.66
2023-06-25T07:26:16.078Z,54.71
2023-06-25T07:27:48.275Z,54.61
2023-06-25T07:29:20.511Z,54.49
2023-06-25T07:30:52.444Z,54.35
2023-06-25T07:32:24.893Z,54.37
2023-06-25T07:33:57.245Z,54.05
2023-06-25T07:35:28.841Z,54.15
2023-06-25T07:37:00.504Z,54.05
2023-06-25T07:38:32.108Z,53.70
2023-06-25T07:40:04.928Z,53.90
2023-06-25T07:41:36.678Z,53.67
2023-06-25T07:43:08.372Z,53.46
2023-06-25T07:44:54.398Z,53.38
2023-06-25T07:46:27.320Z,53.41
2023-06-25T07:47:58.960Z,53.44
2023-06-25T07:49:30.845Z,53.45
2023-06-25T07:51:02.733Z,52.98
2023-06-25T07:52:34.721Z,53.14
2023-06-25T07:54:06.668Z,53.30
2023-06-25T07:55:56.325Z,52.85
2023-06-25T07:57:33.862Z,52.90
2023-06-25T07:59:05.489Z,52.85
2023-06-25T08:00:37.772Z,52.47
2023-06-25T08:02:09.528Z,52.88
2023-06-25T08:03:41.440Z,53.05
2023-06-25T08:05:13.270Z,52.66
2023-06-25T08:06:45.030Z,52.64
2023-06-25T08:08:16.786Z,52.79
2023-06-25T08:09:51.161Z,52.69
2023-06-25T08:11:26.457Z,52.49
2023-06-25T08:12:58.422Z,52.39
2023-06-25T08:14:30.603Z,51.98
2023-06-25T08:16:02.294Z,51.96
2023-06-25T08:17:34.050Z,51.98
2023-06-25T08:19:05.959Z,51.85
2023-06-25T08:20:37.918Z,51.85
2023-06-25T08:22:09.650Z,51.89
2023-06-25T08:23:41.872Z,51.76
2023-06-25T08:25:24.660Z,51.71
2023-06-25T08:26:57.004Z,51.45
2023-06-25T08:28:29.028Z,51.62
2023-06-25T08:30:00.643Z,51.53
2023-06-25T08:31:32.869Z,51.38
2023-06-25T08:33:04.826Z,51.06
2023-06-25T08:34:36.760Z,50.95
2023-06-25T08:36:08.359Z,51.31
2023-06-25T08:37:40.397Z,50.99
2023-06-25T08:39:11.998Z,51.03
2023-06-25T08:40:44.041Z,51.10
2023-06-25T08:42:16.311Z,51.14
2023-06-25T08:43:48.241Z,50.99
2023-06-25T08:45:19.872Z,50.85
2023-06-25T08:46:51.604Z,50.60
2023-06-25T08:48:24.202Z,50.67
2023-06-25T08:49:55.869Z,50.83
2023-06-25T08:51:27.513Z,50.89
2023-06-25T08:52:59.164Z,50.57
2023-06-25T08:54:31.727Z,50.01
2023-06-25T08:56:04.013Z,49.68
2023-06-25T08:57:35.622Z,49.56
2023-06-25T08:59:07.295Z,49.86
2023-06-25T09:00:39.439Z,49.49
2023-06-25T09:02:11.358Z,49.75
2023-06-25T09:03:43.596Z,50.09
2023-06-25T09:05:15.142Z,49.67
2023-06-25T09:07:03.092Z,49.55
2023-06-25T09:08:35.655Z,49.57
2023-06-25T09:10:10.334Z,49.81
2023-06-25T09:11:41.996Z,49.65
2023-06-25T09:13:15.197Z,49.51
2023-06-25T09:14:48.829Z,49.22
2023-06-25T09:16:20.500Z,48.93
2023-06-25T09:17:55.907Z,48.72
2023-06-25T09:19:27.894Z,49.16
2023-06-25T09:21:01.954Z,48.95
2023-06-25T09:22:33.889Z,48.64
2023-06-25T09:24:15.618Z,48.67
2023-06-25T09:25:47.360Z,49.21
2023-06-25T09:27:22.133Z,48.65
2023-06-25T09:28:55.018Z,48.82
2023-06-25T09:30:26.662Z,48.73
2023-06-25T09:31:58.222Z,48.73
2023-06-25T09:33:35.809Z,48.67
2023-06-25T09:35:07.809Z,48.67
2023-06-25T09:36:40.175Z,48.42
2023-06-25T09:38:12.559Z,48.30
2023-06-25T09:39:44.553Z,47.83
2023-06-25T09:41:19.019Z,48.16
2023-06-25T09:42:51.535Z,47.68
2023-06-25T09:44:26.057Z,47.75
2023-06-25T09:45:57.691Z,47.84
2023-06-25T09:47:29.523Z,47.76
2023-06-25T09:49:03.003Z,47.91
2023-06-25T09:50:36.895Z,47.99
2023-06-25T09:52:09.172Z,47.41
2023-06-25T09:53:41.774Z,47.56
2023-06-25T09:55:13.675Z,47.50
2023-06-25T09:56:45.939Z,47.22
2023-06-25T09:58:18.195Z,47.36
2023-06-25T09:59:50.102Z,47.14
2023-06-25T10:01:22.079Z,47.17
2023-06-25T10:02:53.924Z,47.17
2023-06-25T10:04:25.731Z,47.40
2023-06-25T10:05:57.484Z,47.61
2023-06-25T10:07:29.879Z,47.02
2023-06-25T10:09:03.006Z,46.97
2023-06-25T10:10:34.774Z,47.10
2023-06-25T10:12:06.928Z,47.17
2023-06-25T10:13:42.715Z,46.91
2023-06-25T10:15:14.737Z,46.84
2023-06-25T10:16:56.313Z,46.74
2023-06-25T10:18:28.440Z,46.46
2023-06-25T10:20:00.783Z,46.38
2023-06-25T10:21:32.899Z,46.18
2023-06-25T10:23:10.654Z,46.03
2023-06-25T10:24:42.849Z,45.97
2023-06-25T10:26:15.014Z,45.95
2023-06-25T10:27:46.592Z,45.80
2023-06-25T10:29:18.426Z,45.70
2023-06-25T10:30:51.075Z,45.53
2023-06-25T10:32:23.338Z,45.24
2023-06-25T10:34:05.363Z,45.04
2023-06-25T10:35:40.177Z,45.01
2023-06-25T10:37:13.812Z,44.58
2023-06-25T10:38:45.731Z,44.56
2023-06-25T10:40:17.774Z,44.45
2023-06-25T10:41:50.470Z,44.13
2023-06-25T10:43:22.149Z,44.03
2023-06-25T10:44:53.820Z,44.11
2023-06-25T10:46:34.416Z,43.93
2023-06-25T10:48:13.640Z,44.13
2023-06-25T10:49:45.312Z,44.05
2023-06-25T10:51:17.438Z,44.01
2023-06-25T10:52:49.539Z,43.88
2023-06-25T10:54:21.495Z,43.92
2023-06-25T10:55:53.837Z,43.88
2023-06-25T10:57:25.567Z,43.99
2023-06-25T10:58:57.691Z,43.81
2023-06-25T11:00:29.487Z,43.73
2023-06-25T11:02:10.456Z,43.50
2023-06-25T11:03:42.922Z,43.50
2023-06-25T11:05:14.988Z,42.97
2023-06-25T11:06:46.832Z,43.40
2023-06-25T11:08:18.817Z,43.26
2023-06-25T11:09:57.044Z,43.32
2023-06-25T11:11:30.708Z,42.88
2023-06-25T11:13:03.415Z,43.25
2023-06-25T11:14:35.130Z,42.71
2023-06-25T11:16:06.933Z,42.74
2023-06-25T11:17:38.899Z,42.21
2023-06-25T11:19:10.771Z,41.97
2023-06-25T11:20:42.949Z,42.61
2023-06-25T11:22:14.876Z,42.56
2023-06-25T11:23:46.912Z,42.17
2023-06-25T11:25:20.015Z,42.12
2023-06-25T11:26:57.153Z,42.17
2023-06-25T11:28:28.967Z,42.04
2023-06-25T11:30:02.828Z,41.72
2023-06-25T11:31:43.997Z,41.78
2023-06-25T11:33:16.627Z,41.29
2023-06-25T11:34:48.347Z,41.58
2023-06-25T11:36:20.365Z,41.05
2023-06-25T11:37:52.737Z,41.23
2023-06-25T11:39:24.673Z,41.17
2023-06-25T11:40:59.386Z,40.69
2023-06-25T11:42:31.512Z,40.26
2023-06-25T11:44:03.766Z,40.45
2023-06-25T11:45:42.219Z,40.35
2023-06-25T11:47:14.781Z,40.47
2023-06-25T11:48:50.475Z,40.94
2023-06-25T11:50:22.600Z,40.75
2023-06-25T11:51:54.422Z,40.48
2023-06-25T11:53:26.190Z,40.58
2023-06-25T11:54:57.971Z,40.10
2023-06-25T11:56:30.101Z,39.97
2023-06-25T11:58:02.139Z,39.90
2023-06-25T11:59:33.910Z,40.30
2023-06-25T12:01:05.587Z,39.72
2023-06-25T12:02:49.017Z,39.76
2023-06-25T12:04:21.562Z,39.76
2023-06-25T12:05:53.568Z,40.18
2023-06-25T12:07:25.963Z,39.67
2023-06-25T12:08:57.726Z,39.64
2023-06-25T12:10:29.877Z,39.46
2023-06-25T12:12:02.377Z,39.36
2023-06-25T12:13:35.514Z,39.27
2023-06-25T12:15:07.473Z,38.93
2023-06-25T12:16:39.172Z,39.43
2023-06-25T12:18:10.828Z,39.04
2023-06-25T12:19:45.101Z,39.04
2023-06-25T12:21:17.107Z,39.44
2023-06-25T12:22:48.893Z,39.35
2023-06-25T12:24:20.773Z,39.26
2023-06-25T12:25:53.783Z,39.13
2023-06-25T12:27:25.636Z,38.54
2023-06-25T12:28:57.426Z,38.82
2023-06-25T12:30:29.262Z,38.87
2023-06-25T12:32:04.486Z,38.91
2023-06-25T12:33:36.468Z,39.04
2023-06-25T12:35:08.481Z,38.34
2023-06-25T12:36:40.413Z,38.80
2023-06-25T12:38:12.148Z,38.96
2023-06-25T12:39:43.872Z,38.40
2023-06-25T12:41:15.828Z,38.76
2023-06-25T12:42:47.934Z,38.75
2023-06-25T12:44:20.414Z,38.44
2023-06-25T12:45:52.489Z,38.65
2023-06-25T12:47:24.204Z,39.11
2023-06-25T12:48:56.547Z,38.91
2023-06-25T12:50:29.782Z,39.00
2023-06-25T12:52:02.599Z,38.82
2023-06-25T12:53:34.835Z,38.35
2023-06-25T12:55:07.460Z,38.14
2023-06-25T12:56:39.590Z,38.04
2023-06-25T12:58:11.452Z,38.64
2023-06-25T12:59:43.468Z,38.44
2023-06-25T13:01:15.984Z,38.29
2023-06-25T13:02:48.231Z,37.85
2023-06-25T13:04:20.345Z,38.33
2023-06-25T13:05:52.563Z,37.93
2023-06-25T13:07:25.016Z,38.41
2023-06-25T13:08:57.592Z,38.29
2023-06-25T13:10:29.579Z,38.09
2023-06-25T13:12:01.273Z,37.51
2023-06-25T13:13:32.918Z,37.90
2023-06-25T13:15:08.356Z,37.96
2023-06-25T13:16:39.916Z,37.79
2023-06-25T13:18:11.628Z,37.71
2023-06-25T13:19:43.347Z,37.83
2023-06-25T13:21:15.595Z,37.79
2023-06-25T13:22:47.447Z,37.85
2023-06-25T13:24:19.754Z,37.74
2023-06-25T13:25:51.902Z,37.18
2023-06-25T13:27:24.148Z,37.27
2023-06-25T13:28:57.721Z,37.20
2023-06-25T13:30:29.687Z,37.11
2023-06-25T13:32:01.852Z,37.15
2023-06-25T13:33:33.600Z,37.65
2023-06-25T13:35:06.693Z,37.47
2023-06-25T13:36:38.681Z,37.60
2023-06-25T13:38:13.505Z,37.83
2023-06-25T13:39:46.309Z,37.64
2023-06-25T13:41:19.193Z,37.80
2023-06-25T13:42:51.098Z,37.52
2023-06-25T13:44:23.382Z,37.87
2023-06-25T13:45:55.449Z,37.96
2023-06-25T13:47:27.265Z,38.03
2023-06-25T13:48:59.578Z,38.03
2023-06-25T13:50:31.289Z,37.89
2023-06-25T13:52:04.399Z,37.89
2023-06-25T13:53:36.140Z,37.68
2023-06-25T13:55:08.327Z,37.77
2023-06-25T13:56:41.000Z,37.95
2023-06-25T13:58:12.914Z,37.76
2023-06-25T13:59:45.508Z,38.03
2023-06-25T14:01:17.370Z,37.67
2023-06-25T14:02:59.127Z,37.91
2023-06-25T14:04:40.432Z,37.75
2023-06-25T14:06:12.617Z,37.89
2023-06-25T14:07:44.484Z,37.83
2023-06-25T14:09:16.372Z,37.82
2023-06-25T14:10:48.527Z,37.67
2023-06-25T14:12:20.903Z,38.04
2023-06-25T14:13:54.340Z,38.09
2023-06-25T14:15:28.725Z,37.96
2023-06-25T14:17:00.974Z,37.99
2023-06-25T14:18:32.642Z,37.96
2023-06-25T14:20:04.871Z,38.05
2023-06-25T14:21:37.088Z,37.99
2023-06-25T14:23:08.892Z,37.86
2023-06-25T14:24:41.052Z,37.83
2023-06-25T14:26:12.875Z,38.07
2023-06-25T14:27:45.401Z,38.09
2023-06-25T14:29:17.562Z,38.22
2023-06-25T14:30:49.339Z,38.33
2023-06-25T14:32:21.384Z,38.12
2023-06-25T14:33:53.855Z,37.97
2023-06-25T14:35:26.094Z,38.04
2023-06-25T14:36:59.971Z,38.21
2023-06-25T14:38:32.182Z,38.40
2023-06-25T14:40:04.792Z,38.28
2023-06-25T14:41:39.026Z,38.54
2023-06-25T14:43:11.009Z,38.29
2023-06-25T14:44:42.683Z,38.19
2023-06-25T14:46:14.412Z,38.64
2023-06-25T14:47:46.384Z,38.54
2023-06-25T14:49:18.206Z,38.33
2023-06-25T14:50:49.852Z,38.26
2023-06-25T14:52:21.757Z,38.40
2023-06-25T14:53:53.949Z,38.47
2023-06-25T14:55:25.671Z,38.27
2023-06-25T14:56:57.473Z,38.33
2023-06-25T14:58:29.219Z,38.42
2023-06-25T15:00:02.227Z,38.43
2023-06-25T15:01:34.024Z,38.51
2023-06-25T15:03:05.968Z,38.47
2023-06-25T15:04:39.811Z,38.40
2023-06-25T15:06:17.692Z,38.42
